Terminal Aerodrome Forecast
Issued by NWS

Home | Current Version | Previous Version | Graphics & Text | Print | Product List | Glossary On
Versions: 1 2 3 4 5 6 7 8 9 10 11 12 13 14 15 16 17 18 19 20 21 22 23 24
995
FTUS43 KABR 110827 AAA
TAFMBG
TAF AMD
KMBG 110827Z 1108/1206 VRB05KT P6SM OVC015
     FM111400 13007KT 3SM -SN BKN015 OVC035
     FM112000 07008KT P6SM OVC010
     FM112300 01009KT P6SM OVC015=

USA.gov is the U.S. government's official web portal to all federal, state and local government web resources and services.